• Join FlightAware (Why Join?)
  • Login
  • US Flag 
03:01PM EDT


 

Airport Tracker/Info


-or-


 

Live Flight TrackerFlight Track Log ✈ N508QS ✈ 20-May-2013 ✈ MYNN / NAS - CYQG

Flight Track Log - Related Links

Times and Time Zones

All times are in EDT time to prevent confusion due to time zone crossing. See the N508QS flight status page for this flight to view local times or setup timezone preferences in your user account.

Time Position Orientation Groundspeed Altitude Reporting Facility
EDT Latitude Longitude Course Direction KTS MPH feet Rate Location/Type
02:28PM 25.0678 -77.3981 24° Northeast 477 549 7,200  Level Miami Center
02:29PM 25.1494 -77.3869 North 380 437 10,700 2,760 Climbing Miami Center
02:30PM 25.2372 -77.3411 25° Northeast 347 399 12,800 2,160 Climbing Miami Center
02:31PM 25.3397 -77.2889 25° Northeast 372 428 15,100 1,620 Climbing Miami Center
02:32PM 25.4425 -77.2361 25° Northeast 388 447 16,100 1,860 Climbing Miami Center
02:33PM 25.5469 -77.1811 25° Northeast 401 461 18,900 2,700 Climbing Miami Center
02:34PM 25.6967 -77.0934 24° Northeast  Level FlightAware Approximate
02:34PM 25.6558 -77.1261 24° Northeast 413 475 21,500  Level Miami Center
02:35PM 25.7708 -77.0642 26° Northeast 427 491 23,000 960 Climbing Miami Center
02:36PM 25.8919 -77.0275 15° North 443 510 23,500 1,260 Climbing Miami Center
02:37PM 26.0194 -77.0436 354° North 437 503 25,600 2,160 Climbing Miami Center
02:38PM 26.1489 -77.0833 345° North 461 531 27,900 2,280 Climbing Miami Center
02:39PM 26.2828 -77.1158 348° North 472 543 30,200 2,460 Climbing Miami Center
02:40PM 26.4122 -77.1511 346° North 472 543 32,900 2,580 Climbing Miami Center
02:41PM 26.5417 -77.1886 345° North 472 543 35,400 2,160 Climbing Miami Center
02:42PM 26.6711 -77.2236 346° North 472 543 37,300 1,980 Climbing Miami Center
02:43PM 26.7983 -77.2614 345° North 472 543 39,400 1,800 Climbing Miami Center
02:44PM 26.9258 -77.2944 347° North 472 543 41,000 780 Climbing Miami Center
02:45PM 27.0550 -77.3322 345° North 472 543 41,000  Level Miami Center
02:46PM 27.1825 -77.3747 343° North 472 543 41,000  Level Miami Center
02:47PM 27.3117 -77.4103 346° North 472 543 41,000  Level Miami Center
02:48PM 27.4411 -77.4439 347° North 472 543 41,000  Level Miami Center
02:49PM 27.5831 -77.4772 348° North 472 543 41,000  Level Miami Center
02:50PM 27.6956 -77.5131 344° North 472 543 41,000  Level Miami Center
02:51PM 27.8269 -77.5514 346° North 472 543 41,000  Level Miami Center
02:52PM 27.9583 -77.5875 346° North 466 536 41,000  Level Miami Center
02:53PM 28.0878 -77.6236 346° North 474 545 41,000  Level Miami Center
02:54PM 28.2211 -77.6458 352° North 478 550 41,000  Level Miami Center
02:55PM 28.3506 -77.6514 358° North 478 550 41,000 -60 Level Miami Center
02:56PM 28.4842 -77.6594 357° North 476 548 40,900  Descending Miami Center
02:57PM 28.6178 -77.6650 358° North 481 554 41,000  Climbing Miami Center
02:58PM 28.7492 -77.6731 357° North 481 554 41,000  Level Miami Center
02:59PM 28.8828 -77.6789 358° North 476 548 41,000  Level Miami Center
03:00PM 29.0142 -77.6869 357° North 476 548 41,000  Level Miami Center
03:01PM 29.1456 -77.6928 358° North 476 548 41,000  Level Miami Center
03:02PM 29.2853 -77.7031 356° North 476 548 41,000  Level Miami Center
03:03PM 29.4125 -77.7067 359° North 481 554 41,000  Level Miami Center
03:04PM 29.5458 -77.7147 357° North 473 544 41,000  Level Miami Center
03:05PM 29.6772 -77.7181 359° North 479 551 41,000  Level Miami Center
03:07PM 29.8886 -77.7283 358° North 472 543 41,000  Level Jacksonville Center
03:08PM 30.0225 -77.7378 357° North 465 535 41,000  Level Jacksonville Center
03:09PM 30.1606 -77.7450 357° North 473 544 41,000  Level Jacksonville Center
03:10PM 30.2917 -77.7356 North 473 544 41,000  Level Jacksonville Center
03:11PM 30.4236 -77.7475 356° North 479 551 41,000  Level Jacksonville Center
03:12PM 30.5550 -77.7478 360° North 479 551 41,000  Level Jacksonville Center
03:13PM 30.6894 -77.7669 353° North 479 551 41,000  Level Jacksonville Center
03:14PM 30.8211 -77.7719 358° North 479 551 41,000  Level Jacksonville Center
03:15PM 30.9531 -77.7842 355° North 479 551 41,000  Level Jacksonville Center
03:16PM 31.0850 -77.7939 356° North 479 551 41,000  Level Jacksonville Center
03:17PM 31.2189 -77.7989 358° North 479 551 41,000  Level Jacksonville Center
03:18PM 31.3506 -77.8064 357° North 479 551 41,000  Level Jacksonville Center
03:19PM 31.4819 -77.8064 360° North 479 551 41,000  Level Jacksonville Center
03:20PM 31.6161 -77.8161 356° North 479 551 41,000  Level Jacksonville Center
03:21PM 31.7478 -77.8211 358° North 479 551 41,000  Level Jacksonville Center
03:22PM 31.8778 -77.8361 354° North 479 551 41,000  Level Jacksonville Center
03:23PM 32.0094 -77.8411 358° North 479 551 41,000  Level Jacksonville Center
03:24PM 32.1392 -77.8461 358° North 474 545 41,000  Level Jacksonville Center
03:25PM 32.2728 -77.8536 357° North 474 545 41,000  Level Jacksonville Center
03:26PM 32.4028 -77.8636 356° North 474 545 41,000  Level Jacksonville Center
03:27PM 32.5344 -77.8711 357° North 474 545 41,000  Level Jacksonville Center
03:28PM 32.6683 -77.8758 358° North 474 545 41,000  Level Jacksonville Center
03:29PM 32.8000 -77.8833 357° North 474 545 41,000  Level Jacksonville Center
03:30PM 32.9319 -77.8933 356° North 479 551 41,000  Level Jacksonville Center
03:31PM 33.0639 -77.9033 356° North 479 551 41,000  Level Jacksonville Center
03:32PM 33.1997 -77.9083 358° North 479 551 41,000  Level Jacksonville Center
03:33PM 33.3333 -77.9156 357° North 479 551 41,000  Level Jacksonville Center
03:34PM 33.4653 -77.9233 357° North 479 551 41,000  Level Jacksonville Center
03:35PM 33.6275 -77.9336 357° North 478 550 41,000  Level Washington Center
03:36PM 33.7608 -77.9422 357° North 478 550 41,000  Level Washington Center
03:37PM 33.9128 -77.9492 358° North 478 550 41,000  Level Washington Center
03:38PM 34.0483 -77.9581 357° North 483 556 41,000  Level Washington Center
03:39PM 34.1792 -77.9917 348° North 483 556 41,000 600 Level Washington Center
03:40PM 34.3072 -78.0558 338° Northwest 475 547 42,200 960 Climbing Washington Center
03:41PM 34.4269 -78.1122 339° North 475 547 43,000 360 Climbing Washington Center
03:42PM 34.5489 -78.1664 340° North 470 541 43,000  Level Washington Center
03:43PM 34.6686 -78.2233 339° North 465 535 43,000  Level Washington Center
03:44PM 34.7906 -78.2803 339° North 465 535 43,000  Level Washington Center
03:45PM 34.9042 -78.3272 341° North 459 528 43,000  Level Washington Center
03:46PM 35.0258 -78.3869 338° Northwest 459 528 43,000  Level Washington Center
03:47PM 35.1436 -78.4419 339° North 459 528 43,000  Level Washington Center
03:48PM 35.2653 -78.4997 339° North 459 528 43,000  Level Washington Center
03:49PM 35.3892 -78.5550 340° North 473 544 43,000  Level Washington Center
03:50PM 35.4964 -78.6050 339° North 466 536 43,000  Level Washington Center
03:51PM 35.6283 -78.6689 339° North 461 531 43,000  Level Washington Center
03:52PM 35.7436 -78.7244 339° North 474 545 43,000  Level Washington Center
03:53PM 35.8631 -78.7831 338° Northwest 469 540 43,000  Level Washington Center
03:54PM 35.9717 -78.8617 330° Northwest 457 526 43,000  Level Washington Center
03:55PM 36.0778 -78.9458 327° Northwest 452 520 43,000  Level Washington Center
03:56PM 36.1858 -79.0328 327° Northwest 452 520 43,000  Level Washington Center
03:57PM 36.2919 -79.1147 328° Northwest 452 520 43,000  Level Washington Center
03:58PM 36.4100 -79.2131 326° Northwest 452 520 43,000  Level Washington Center
03:59PM 36.5142 -79.2928 328° Northwest 444 511 43,000  Level Washington Center
04:00PM 36.6239 -79.3808 327° Northwest 460 529 43,000  Level Washington Center
04:01PM 36.7317 -79.4692 327° Northwest 460 529 43,000  Level Washington Center
04:02PM 36.8314 -79.5492 327° Northwest 466 536 43,000  Level Washington Center
04:03PM 36.9411 -79.6381 327° Northwest 466 536 43,000  Level Washington Center
04:04PM 37.0528 -79.7297 327° Northwest 471 542 43,000  Level Washington Center
04:05PM 37.1600 -79.8189 326° Northwest 471 542 43,000 60 Level Washington Center
04:06PM 37.2875 -79.8706 342° North 461 531 43,200 480 Climbing Washington Center
04:07PM 37.4372 -79.8892 354° North 478 550 44,000 780 Climbing Washington Center
04:08PM 37.5700 -79.9072 354° North 488 562 44,800 480 Climbing Washington Center
04:09PM 37.7022 -79.9436 348° North 483 556 45,000 60 Climbing Washington Center
04:10PM 37.8297 -79.9958 342° North 483 556 45,000  Level Washington Center
04:11PM 37.9575 -80.0375 346° North 476 548 45,000  Level Washington Center
04:12PM 38.0875 -80.0689 349° North 469 540 45,000  Level Washington Center
04:13PM 38.2078 -80.0894 352° North 469 540 45,000  Level Washington Center
04:14PM 38.3383 -80.1158 351° North 475 547 45,000  Level Washington Center
04:15PM 38.4686 -80.1422 351° North 475 547 45,000  Level Washington Center
04:16PM 38.6169 -80.1356 North 475 547 45,000  Level Washington Center
04:17PM 38.7508 -80.1225 North 480 552 45,000  Level Washington Center
04:18PM 38.8867 -80.1147 North 480 552 45,000  Level Washington Center
04:19PM 39.0094 -80.1758 339° North 463 533 45,000  Level Washington Center
04:21PM 39.1894 -80.3181 329° Northwest 461 531 45,000  Level Cleveland Center
04:22PM 39.2978 -80.4086 327° Northwest 467 537 45,000  Level Cleveland Center
04:23PM 39.4083 -80.4969 328° Northwest 472 543 45,000  Level Cleveland Center
04:24PM 39.5211 -80.5911 327° Northwest 472 543 45,000  Level Cleveland Center
04:25PM 39.6336 -80.6856 327° Northwest 477 549 45,000  Level Cleveland Center
04:26PM 39.7439 -80.7775 327° Northwest 477 549 45,000  Level Cleveland Center
04:27PM 39.8542 -80.8697 327° Northwest 477 549 45,000 -600 Level Cleveland Center
04:28PM 39.9664 -80.9650 327° Northwest 477 549 43,900 -1,320 Descending Cleveland Center
04:29PM 40.0786 -81.0578 328° Northwest 477 549 42,400 -1,500 Descending Cleveland Center
04:30PM 40.1950 -81.1567 327° Northwest 483 556 40,900 -1,500 Descending Cleveland Center
04:31PM 40.3133 -81.2556 328° Northwest 488 562 39,400 -1,500 Descending Cleveland Center
04:32PM 40.4272 -81.3494 328° Northwest 493 567 38,000 -720 Descending Cleveland Center
04:33PM 40.5411 -81.4519 326° Northwest 501 577 38,000  Level Cleveland Center
04:34PM 40.6447 -81.5464 325° Northwest 501 577 38,000 -600 Level Cleveland Center
04:35PM 40.7797 -81.5894 346° North 501 577 36,900 -1,020 Descending Cleveland Center
04:36PM 40.9172 -81.6136 352° North 494 568 36,000 -1,020 Descending Cleveland Center
04:37PM 41.0544 -81.6350 353° North 494 568 34,900 -1,980 Descending Cleveland Center
04:38PM 41.2042 -81.6814 347° North 502 578 32,100 -2,400 Descending Cleveland Center
04:39PM 41.3053 -81.8022 318° Northwest 481 554 30,200 -1,800 Descending Cleveland Center
04:40PM 41.3972 -81.9450 311° West 473 544 28,500 -2,100 Descending Cleveland Center
04:41PM 41.4833 -82.0742 312° West 481 554 26,000 -2,460 Descending Cleveland Center
04:42PM 41.5669 -82.2011 311° West 466 536 23,600 -2,220 Descending Cleveland Center
04:43PM 41.6406 -82.3142 311° West 460 529 21,600 -2,280 Descending Cleveland Center
04:44PM 41.7036 -82.4103 311° West 428 493 19,800 -2,340 Descending Cleveland Center
04:44PM 41.7158 -82.4331 306° West 439 505 19,300 -3,480 Descending Cleveland Center
04:45PM 41.7889 -82.5464 311° West 424 488 15,300 -4,020 Descending Cleveland Center
04:46PM 41.8867 -82.6694 317° Northwest 378 435 10,800 -2,700 Descending Cleveland Center
04:47PM 41.9658 -82.6719 359° North 353 406 9,900 -2,040 Descending Cleveland Center
04:48PM 42.0492 -82.6775 357° North 328 377 7,100 -2,460 Descending Cleveland Center
04:49PM 42.1325 -82.6831 357° North 268 308 5,100 -1,860 Descending Cleveland Center
04:50PM 42.2053 -82.6883 357° North 239 275 3,400 -1,080 Descending Cleveland Center
04:51PM 42.2636 -82.6931 357° North 244 281 3,000 -240 Descending Cleveland Center
04:52PM 42.3303 -82.7036 353° North 238 274 3,000 -300 Level Cleveland Center
04:53PM 42.3564 -82.7553 304° West 198 228 2,500 -480 Descending Cleveland Center
04:54PM 42.3300 -82.8244 243° Southwest 169 194 2,000 -360 Descending Cleveland Center
04:55PM 42.3103 -82.8772 243° Southwest 152 175 1,800 -480 Descending Cleveland Center
04:56PM 42.2947 -82.9131 240° Southwest 128 147 1,100 -540 Descending Cleveland Center
04:57PM 42.2839 -82.9381 240° Southwest 127 146 800 -300 Descending Cleveland Center